< < Back
Terminal Aerodrome Forecast


Current Version              Previous Versions:   1  2  3  4  5  6  7  8  9  

Terminal Aerodrome Forecast

254
FTUS42 KTAE 011738
TAFVLD
TAF
KVLD 011738Z 0118/0218 30004KT P6SM SCT020
     FM020200 00000KT P6SM SCT250
     FM020600 00000KT 6SM BR OVC005
      TEMPO 0209/0213 1SM BR OVC001
     FM021500 16005KT P6SM BKN250=

Latest METAR

697
SAUS70 KWBC 020900 RRG
MTRVLD
METAR KVLD 020853Z AUTO 12003KT 7SM CLR 17/16 A3014 RMK AO2 SLP212
T01670161 56003 TSNO


USA.gov is the U.S. government's official web portal to all federal, state and local government web resources and services.